ADDS METAR Data INFO
IDs: Format: Raw Decoded Include TAF

Data at: 1050 UTC 18 Aug 2017

KFST 180953Z AUTO 00000KT 10SM CLR 23/18 A3004 RMK AO2 SLP122 T02280178
KFST 180853Z AUTO 18008KT 10SM CLR 23/18 A3004 RMK AO2 SLP120 T02280178 58016
KFST 180753Z AUTO 19010KT 10SM CLR 23/18 A3005 RMK AO2 SLP124 T02330178
KFST 180653Z AUTO 15009KT 10SM CLR 24/18 A3008 RMK AO2 SLP133 T02390178
KFST 180553Z AUTO 15010KT 10SM CLR 24/18 A3009 RMK AO2 SLP137 T02440178 10311 20244 403500217 50000
KFST 180453Z AUTO 13008KT 10SM CLR 25/18 A3011 RMK AO2 SLP143 T02500178
KFST 180353Z AUTO 15008KT 10SM CLR 26/19 A3011 RMK AO2 SLP143 T02610194
KFST 180253Z AUTO 13006KT 10SM CLR 27/18 A3009 RMK AO2 SLP139 T02670183 53025
KFST 180153Z AUTO 20007KT 10SM CLR 27/18 A3005 RMK AO2 LTG DSNT N SLP125 T02720178
KFST 180053Z AUTO 19014KT 10SM CLR 29/17 A3003 RMK AO2 LTG DSNT NE SLP120 T02940172
KFST 172353Z AUTO 18013KT 10SM CLR 31/17 A3001 RMK AO2 LTG DSNT NE SLP111 T03110172 10350 20306 56004
KFST 172253Z AUTO 18011KT 10SM CLR 33/17 A3001 RMK AO2 LTG DSNT S SLP110 T03280167
KFST 172153Z AUTO 23008KT 10SM CLR 31/16 A3001 RMK AO2 LTG DSNT N AND NE SLP109 T03110161
KFST 172053Z AUTO 15007KT 10SM CLR 33/16 A3002 RMK AO2 LTG DSNT S-NW SLP113 T03280156 56018
KFST 171953Z AUTO 11013G19KT 10SM CLR 34/18 A3004 RMK AO2 LTG DSNT SW AND W SLP116 T03440178
KFST 171853Z AUTO 14011KT 10SM CLR 34/19 A3006 RMK AO2 LTG DSNT SW AND W SLP124 T03390189
KFST 171753Z AUTO 14010KT 10SM CLR 33/19 A3008 RMK AO2 SLP132 T03280189 10333 20217 50002
KFST 171653Z AUTO 11008KT 10SM CLR 32/18 A3008 RMK AO2 SLP134 T03170178
KFST 171553Z AUTO 16008KT 10SM FEW110 31/17 A3008 RMK AO2 SLP133 T03060172
KFST 171453Z AUTO 16008KT 10SM CLR 27/18 A3007 RMK AO2 SLP131 T02670183 53009
KFST 171353Z AUTO 17009KT 10SM CLR 26/17 A3006 RMK AO2 SLP128 T02560172
KFST 171253Z AUTO 16010KT 10SM CLR 23/17 A3005 RMK AO2 SLP124 T02280172
KFST 171153Z AUTO 15009KT 10SM CLR 22/17 A3004 RMK AO2 SLP120 T02220172 10261 20222 53005
KFST 171053Z AUTO 16009KT 10SM CLR 23/18 A3003 RMK AO2 SLP114 T02280178
KFST 170853Z AUTO 11004KT 10SM CLR 24/18 A3003 RMK AO2 SLP110 T02440178 51005
KFST 170753Z AUTO 16004KT 10SM CLR 26/17 A3002 RMK AO2 SLP109 T02560167
KFST 170653Z AUTO 17008KT 10SM CLR 26/16 A3001 RMK AO2 SLP106 T02560161 TSNO
KFST 170553Z AUTO 16008KT 10SM CLR 26/15 A3001 RMK AO2 SLP107 T02560150 10350 20256 403830217 51012 TSNO
KFST 170453Z AUTO 10SM CLR 26/15 A3000 RMK AO2 SLP104 T02610150 TSNO
KFST 170353Z AUTO 17009KT 10SM CLR 27/15 A2999 RMK AO2 SLP099 T02720150 TSNO
KFST 170253Z AUTO 14006KT 10SM CLR 28/15 A2997 RMK AO2 SLP094 T02830150 53015
KFST 170153Z AUTO 21010KT 10SM CLR 30/15 A2994 RMK AO2 SLP084 T03000150
KFST 170053Z AUTO 18014KT 10SM CLR 32/15 A2993 RMK AO2 SLP083 T03170150
KFST 162353Z AUTO 16010KT 10SM CLR 34/13 A2992 RMK AO2 WSHFT 2251 SLP078 T03440133 10383 20344 56002
KFST 162311Z AUTO 17013KT 10SM BKN110 36/14 A2992 RMK AO2 WSHFT 2251 T03560139
KFST 162253Z AUTO 15013G18KT 10SM FEW110 36/15 A2992 RMK AO2 SLP077 T03610150